createdAt,value
2022-11-24T00:04:57.671Z,40.80
2022-11-24T00:07:28.757Z,35.70
2022-11-24T00:09:59.740Z,45.10
2022-11-24T00:12:30.823Z,45.70
2022-11-24T00:15:01.937Z,43.90
2022-11-24T00:20:02.876Z,38.50
2022-11-24T00:22:35.071Z,36.40
2022-11-24T00:25:07.484Z,36.00
2022-11-24T00:27:38.530Z,39.00
2022-11-24T00:30:11.409Z,34.10
2022-11-24T00:32:42.698Z,42.30
2022-11-24T00:37:43.778Z,39.90
2022-11-24T00:42:45.174Z,38.00
2022-11-24T00:45:16.492Z,38.20
2022-11-24T00:47:47.701Z,38.30
2022-11-24T00:50:20.215Z,35.70
2022-11-24T00:52:51.638Z,38.60
2022-11-24T00:55:22.739Z,37.90
2022-11-24T00:57:54.039Z,36.50
2022-11-24T01:00:25.123Z,35.30
2022-11-24T01:02:56.473Z,36.40
2022-11-24T01:05:27.700Z,38.40
2022-11-24T01:07:58.891Z,37.70
2022-11-24T01:12:59.840Z,43.10
2022-11-24T01:15:31.435Z,30.00
2022-11-24T01:18:02.917Z,33.70
2022-11-24T01:23:03.892Z,35.50
2022-11-24T01:25:34.965Z,37.20
2022-11-24T01:28:06.700Z,35.80
2022-11-24T01:30:38.031Z,38.50
2022-11-24T01:35:39.554Z,27.10
2022-11-24T01:38:10.693Z,28.20
2022-11-24T01:40:42.150Z,29.80
2022-11-24T01:43:19.917Z,33.80
2022-11-24T01:45:51.816Z,36.00
2022-11-24T01:48:27.467Z,29.50
2022-11-24T01:51:09.267Z,36.50
2022-11-24T01:53:43.449Z,32.50
2022-11-24T01:56:16.227Z,33.10
2022-11-24T01:58:49.649Z,32.70
2022-11-24T02:01:21.003Z,27.60
2022-11-24T02:03:53.578Z,30.20
2022-11-24T02:06:28.801Z,28.50
2022-11-24T02:09:02.475Z,28.30
2022-11-24T02:11:38.401Z,29.40
2022-11-24T02:14:13.751Z,26.10
2022-11-24T02:16:49.818Z,27.50
2022-11-24T02:19:33.410Z,25.30
2022-11-24T02:22:05.791Z,25.20
2022-11-24T02:24:42.690Z,22.80
2022-11-24T02:27:14.348Z,27.80
2022-11-24T02:29:45.713Z,23.50
2022-11-24T02:32:17.576Z,20.10
2022-11-24T02:34:49.165Z,20.00
2022-11-24T02:37:20.176Z,17.10
2022-11-24T02:39:51.267Z,19.10
2022-11-24T02:42:22.787Z,19.80
2022-11-24T02:47:27.732Z,16.60
2022-11-24T02:49:59.264Z,20.20
2022-11-24T02:52:30.509Z,20.20
2022-11-24T02:55:01.504Z,18.50
2022-11-24T02:57:32.763Z,21.10
2022-11-24T03:00:04.428Z,20.20
2022-11-24T03:02:35.759Z,19.00
2022-11-24T03:05:08.258Z,20.10
2022-11-24T03:07:39.453Z,18.00
2022-11-24T03:10:11.768Z,13.90
2022-11-24T03:12:42.880Z,18.50
2022-11-24T03:15:14.563Z,17.60
2022-11-24T03:17:46.014Z,17.40
2022-11-24T03:20:17.805Z,17.30
2022-11-24T03:22:49.160Z,20.00
2022-11-24T03:25:20.652Z,18.30
2022-11-24T03:27:51.796Z,18.90
2022-11-24T03:30:22.984Z,13.50
2022-11-24T03:32:55.848Z,18.50
2022-11-24T03:35:27.199Z,18.00
2022-11-24T03:40:27.719Z,21.90
2022-11-24T03:42:58.940Z,17.50
2022-11-24T03:45:46.548Z,21.80
2022-11-24T03:48:18.894Z,21.10
2022-11-24T03:50:56.786Z,27.30
2022-11-24T03:53:29.592Z,22.20
2022-11-24T03:56:01.024Z,20.00
2022-11-24T04:01:02.585Z,16.80
2022-11-24T04:03:33.987Z,17.60
2022-11-24T04:06:05.023Z,15.70
2022-11-24T04:08:36.144Z,18.10
2022-11-24T04:11:07.385Z,19.50
2022-11-24T04:16:10.461Z,18.30
2022-11-24T04:18:43.732Z,16.20
2022-11-24T04:21:14.654Z,17.90
2022-11-24T04:23:45.715Z,14.80
2022-11-24T04:26:16.791Z,18.60
2022-11-24T04:28:48.064Z,19.80
2022-11-24T04:31:19.381Z,18.10
2022-11-24T04:33:50.440Z,17.20
2022-11-24T04:36:21.459Z,18.40
2022-11-24T04:39:24.035Z,15.70
2022-11-24T04:41:48.019Z,23.10
2022-11-24T04:44:19.155Z,20.10
2022-11-24T04:49:20.868Z,19.80
2022-11-24T04:51:51.887Z,19.20
2022-11-24T04:54:22.884Z,20.40
2022-11-24T04:56:54.536Z,21.50
2022-11-24T04:59:25.537Z,22.40
2022-11-24T05:01:56.819Z,21.50
2022-11-24T05:04:27.994Z,20.60
2022-11-24T05:06:58.924Z,23.20
2022-11-24T05:09:55.050Z,26.10
2022-11-24T05:12:20.700Z,28.70
2022-11-24T05:14:51.671Z,34.30
2022-11-24T05:17:22.534Z,26.80
2022-11-24T05:19:53.527Z,37.40
2022-11-24T05:22:24.728Z,37.00
2022-11-24T05:24:58.649Z,38.30
2022-11-24T05:27:29.899Z,41.60
2022-11-24T05:32:30.485Z,38.00
2022-11-24T05:35:02.447Z,45.10
2022-11-24T05:37:34.315Z,40.90
2022-11-24T05:40:06.936Z,40.50
2022-11-24T05:42:47.803Z,38.80
2022-11-24T05:45:21.865Z,34.50
2022-11-24T05:47:53.375Z,39.30
2022-11-24T05:55:23.957Z,31.50
2022-11-24T05:58:00.730Z,26.80
2022-11-24T06:00:32.944Z,26.90
2022-11-24T06:03:04.682Z,33.90
2022-11-24T06:05:35.974Z,43.70
2022-11-24T06:10:37.142Z,28.70
2022-11-24T06:15:40.392Z,31.80
2022-11-24T06:18:11.304Z,40.20
2022-11-24T06:20:46.045Z,28.90
2022-11-24T06:23:24.313Z,30.80
2022-11-24T06:25:55.437Z,27.10
2022-11-24T06:28:26.476Z,36.20
2022-11-24T06:31:01.001Z,32.50
2022-11-24T06:33:35.293Z,32.80
2022-11-24T06:36:08.587Z,30.70
2022-11-24T06:38:40.077Z,36.20
2022-11-24T06:41:13.572Z,41.10
2022-11-24T06:43:44.970Z,45.40
2022-11-24T06:48:45.743Z,31.80
2022-11-24T06:51:18.910Z,26.50
2022-11-24T06:53:50.206Z,33.60
2022-11-24T06:56:22.529Z,28.40
2022-11-24T06:58:54.661Z,27.60
2022-11-24T07:01:27.431Z,27.10
2022-11-24T07:03:59.450Z,27.60
2022-11-24T07:06:30.414Z,29.80
2022-11-24T07:09:01.323Z,27.50
2022-11-24T07:11:32.751Z,24.70
2022-11-24T07:16:33.763Z,18.20
2022-11-24T07:19:05.099Z,23.70
2022-11-24T07:21:36.030Z,24.90
2022-11-24T07:24:08.103Z,26.90
2022-11-24T07:26:40.106Z,74.30
2022-11-24T07:29:11.176Z,32.80
2022-11-24T07:31:42.545Z,24.90
2022-11-24T07:34:14.890Z,24.00
2022-11-24T07:36:45.830Z,28.20
2022-11-24T07:39:16.741Z,29.80
2022-11-24T07:41:48.317Z,28.20
2022-11-24T07:44:19.316Z,21.60
2022-11-24T07:46:51.353Z,21.60
2022-11-24T07:49:22.450Z,28.70
2022-11-24T07:51:53.305Z,23.70
2022-11-24T07:54:23.997Z,23.00
2022-11-24T07:56:55.052Z,43.80
2022-11-24T07:59:25.988Z,37.50
2022-11-24T08:01:57.125Z,22.90
2022-11-24T08:04:28.219Z,24.40
2022-11-24T08:06:58.958Z,21.30
2022-11-24T08:09:30.058Z,26.30
2022-11-24T08:12:00.784Z,35.90
2022-11-24T08:14:31.830Z,24.30
2022-11-24T08:19:32.762Z,18.10
2022-11-24T08:24:33.609Z,16.50
2022-11-24T08:27:04.845Z,14.40
2022-11-24T08:29:35.934Z,14.80
2022-11-24T08:32:07.456Z,18.40
2022-11-24T08:34:38.601Z,53.80
2022-11-24T08:37:09.461Z,25.20
2022-11-24T08:42:10.427Z,19.30
2022-11-24T08:47:10.638Z,16.60
2022-11-24T08:49:42.040Z,15.90
2022-11-24T08:52:13.167Z,68.90
2022-11-24T08:54:44.780Z,57.80
2022-11-24T08:57:21.501Z,87.80
2022-11-24T08:59:52.856Z,87.80
2022-11-24T09:02:23.803Z,81.10
2022-11-24T09:07:24.606Z,60.50
2022-11-24T09:09:55.669Z,35.30
2022-11-24T09:12:26.753Z,29.80
2022-11-24T09:14:57.722Z,37.20
2022-11-24T09:17:28.948Z,35.50
2022-11-24T09:22:47.619Z,31.40
2022-11-24T09:25:18.513Z,30.70
2022-11-24T09:27:49.351Z,20.90
2022-11-24T09:30:20.511Z,26.30
2022-11-24T09:32:51.318Z,29.90
2022-11-24T09:35:22.227Z,28.10
2022-11-24T09:37:53.013Z,24.90
2022-11-24T09:40:25.075Z,20.70
2022-11-24T09:43:01.819Z,22.40
2022-11-24T09:46:05.111Z,22.50
2022-11-24T09:48:41.343Z,18.00
2022-11-24T09:51:15.459Z,21.50
2022-11-24T09:53:55.922Z,19.00
2022-11-24T09:56:29.638Z,20.40
2022-11-24T09:59:05.697Z,22.80
2022-11-24T10:01:39.019Z,20.30
2022-11-24T10:04:17.236Z,17.40
2022-11-24T10:06:53.398Z,17.70
2022-11-24T10:09:46.806Z,20.50
2022-11-24T10:12:28.942Z,14.00
2022-11-24T10:15:18.892Z,22.30
2022-11-24T10:18:15.046Z,20.00
2022-11-24T10:20:59.005Z,15.20
2022-11-24T10:23:48.367Z,15.60
2022-11-24T10:26:26.436Z,17.90
2022-11-24T10:28:58.084Z,18.10
2022-11-24T10:31:34.190Z,17.30
2022-11-24T10:34:17.831Z,18.50
2022-11-24T10:39:29.375Z,15.90
2022-11-24T10:42:06.717Z,15.30
2022-11-24T10:44:37.826Z,13.30
2022-11-24T10:47:18.258Z,12.90
2022-11-24T10:49:56.480Z,11.70
2022-11-24T10:52:29.604Z,9.40
2022-11-24T10:55:02.722Z,10.30
2022-11-24T10:57:35.771Z,10.40
2022-11-24T11:00:29.362Z,9.60
2022-11-24T11:03:19.521Z,11.30
2022-11-24T11:05:54.988Z,13.00
2022-11-24T11:08:28.946Z,10.40
2022-11-24T11:11:23.801Z,9.40
2022-11-24T11:14:03.789Z,9.90
2022-11-24T11:16:39.308Z,8.40
2022-11-24T11:19:55.507Z,12.30
2022-11-24T11:22:31.729Z,11.70
2022-11-24T11:25:21.180Z,11.60
2022-11-24T11:27:52.201Z,9.60
2022-11-24T11:36:16.934Z,12.30
2022-11-24T11:38:49.859Z,16.10
2022-11-24T11:41:25.340Z,13.60
2022-11-24T11:44:03.920Z,13.90
2022-11-24T11:46:35.531Z,14.30
2022-11-24T11:49:06.703Z,14.80
2022-11-24T11:55:05.372Z,17.40
2022-11-24T11:57:46.193Z,17.50
2022-11-24T12:00:20.298Z,16.60
2022-11-24T12:03:14.991Z,18.10
2022-11-24T12:05:54.392Z,17.60
2022-11-24T12:09:11.503Z,18.60
2022-11-24T12:11:37.851Z,17.20
2022-11-24T12:14:21.312Z,13.50
2022-11-24T12:16:59.593Z,16.50
2022-11-24T12:19:59.130Z,19.60
2022-11-24T12:22:43.011Z,16.20
2022-11-24T12:25:27.267Z,17.80
2022-11-24T12:28:12.298Z,19.50
2022-11-24T12:30:54.780Z,22.60
2022-11-24T12:33:37.940Z,16.80
2022-11-24T12:36:20.758Z,19.10
2022-11-24T12:39:03.013Z,19.70
2022-11-24T12:41:47.162Z,18.70
2022-11-24T12:44:36.682Z,15.30
2022-11-24T12:47:14.955Z,18.20
2022-11-24T12:50:03.917Z,16.30
2022-11-24T12:52:38.974Z,18.00
2022-11-24T12:55:16.300Z,19.50
2022-11-24T12:57:55.926Z,17.70
2022-11-24T13:00:35.648Z,21.00
2022-11-24T13:03:26.278Z,24.90
2022-11-24T13:06:02.461Z,24.80
2022-11-24T13:08:36.804Z,18.40
2022-11-24T13:11:41.988Z,17.00
2022-11-24T13:14:19.467Z,12.20
2022-11-24T13:17:27.957Z,14.80
2022-11-24T13:19:50.905Z,18.10
2022-11-24T13:22:27.393Z,22.60
2022-11-24T13:25:17.467Z,16.10
2022-11-24T13:27:52.969Z,17.00
2022-11-24T13:30:56.273Z,18.30
2022-11-24T13:33:38.019Z,24.70
2022-11-24T13:36:35.587Z,29.60
2022-11-24T13:39:19.605Z,15.00
2022-11-24T13:42:10.516Z,17.30
2022-11-24T13:45:03.071Z,21.40
2022-11-24T13:47:37.589Z,24.80
2022-11-24T13:50:11.661Z,23.30
2022-11-24T13:52:52.074Z,22.80
2022-11-24T13:55:30.653Z,22.00
2022-11-24T13:58:18.674Z,19.00
2022-11-24T14:01:06.779Z,13.90
2022-11-24T14:03:47.566Z,16.50
2022-11-24T14:06:35.474Z,19.10
2022-11-24T14:09:21.077Z,19.60
2022-11-24T14:12:01.289Z,17.10
2022-11-24T14:14:32.259Z,16.40
2022-11-24T14:17:18.032Z,17.20
2022-11-24T14:19:51.340Z,15.60
2022-11-24T14:22:24.423Z,15.90
2022-11-24T14:24:57.378Z,15.00
2022-11-24T14:27:33.463Z,17.20
2022-11-24T14:30:06.013Z,16.80
2022-11-24T14:32:40.367Z,14.20
2022-11-24T14:37:52.769Z,13.50
2022-11-24T14:40:45.084Z,18.70
2022-11-24T14:43:27.128Z,13.30
2022-11-24T14:46:00.646Z,14.90
2022-11-24T14:48:37.012Z,14.70
2022-11-24T14:51:14.647Z,11.20
2022-11-24T14:53:48.101Z,14.80
2022-11-24T14:56:30.604Z,13.90
2022-11-24T14:59:01.609Z,14.80
2022-11-24T15:09:57.982Z,38.70
2022-11-24T15:12:34.505Z,54.80
2022-11-24T15:15:08.922Z,52.50
2022-11-24T15:17:46.714Z,42.70
2022-11-24T15:20:25.985Z,32.40
2022-11-24T15:23:23.991Z,32.00
2022-11-24T15:25:55.433Z,22.40
2022-11-24T15:28:26.755Z,15.60
2022-11-24T15:31:01.287Z,13.90
2022-11-24T15:33:33.098Z,14.70
2022-11-24T15:36:04.372Z,15.70
2022-11-24T15:38:35.766Z,14.40
2022-11-24T15:41:20.748Z,16.30
2022-11-24T15:43:58.769Z,17.90
2022-11-24T15:46:30.682Z,14.00
2022-11-24T15:49:01.543Z,9.70
2022-11-24T15:51:32.360Z,13.40
2022-11-24T15:54:03.577Z,14.00
2022-11-24T15:59:05.959Z,16.30
2022-11-24T16:01:37.015Z,62.00
2022-11-24T16:06:38.632Z,21.60
2022-11-24T16:09:13.825Z,12.80
2022-11-24T16:11:45.055Z,21.30
2022-11-24T16:14:16.153Z,18.40
2022-11-24T16:19:16.704Z,25.90
2022-11-24T16:21:50.003Z,25.50
2022-11-24T16:24:21.298Z,15.50
2022-11-24T16:26:52.248Z,13.30
2022-11-24T16:29:24.324Z,12.60
2022-11-24T16:31:56.059Z,15.30
2022-11-24T16:34:27.155Z,14.80
2022-11-24T16:39:28.127Z,18.30
2022-11-24T16:41:59.105Z,18.80
2022-11-24T16:44:30.144Z,21.30
2022-11-24T16:47:01.493Z,28.30
2022-11-24T16:49:32.638Z,33.50
2022-11-24T16:54:33.467Z,28.00
2022-11-24T16:57:04.802Z,28.40
2022-11-24T16:59:35.783Z,25.80
2022-11-24T17:04:36.649Z,30.20
2022-11-24T17:09:40.628Z,24.60
2022-11-24T17:12:11.937Z,29.00
2022-11-24T17:14:44.338Z,31.70
2022-11-24T17:17:20.037Z,25.50
2022-11-24T17:19:51.005Z,32.40
2022-11-24T17:22:22.005Z,32.60
2022-11-24T17:24:53.161Z,26.80
2022-11-24T17:27:24.065Z,33.70
2022-11-24T17:32:24.512Z,75.20
2022-11-24T17:34:55.801Z,40.00
2022-11-24T17:37:26.810Z,43.70
2022-11-24T17:40:20.813Z,45.00
2022-11-24T17:42:48.813Z,32.10
2022-11-24T17:45:19.972Z,32.40
2022-11-24T17:47:50.962Z,27.70
2022-11-24T17:50:25.686Z,29.20
2022-11-24T17:52:57.430Z,26.20
2022-11-24T17:55:28.457Z,30.70
2022-11-24T17:58:00.002Z,30.80
2022-11-24T18:00:31.118Z,40.20
2022-11-24T18:05:36.263Z,34.90
2022-11-24T18:08:07.746Z,30.30
2022-11-24T18:10:38.638Z,44.10
2022-11-24T18:15:39.183Z,54.80
2022-11-24T18:18:10.117Z,45.10
2022-11-24T18:20:41.084Z,28.10
2022-11-24T18:23:12.109Z,32.30
2022-11-24T18:25:43.150Z,37.20
2022-11-24T18:28:14.078Z,34.60
2022-11-24T18:30:45.030Z,28.30
2022-11-24T18:33:16.113Z,30.50
2022-11-24T18:38:16.920Z,30.40
2022-11-24T18:40:53.117Z,33.70
2022-11-24T18:43:24.474Z,34.00
2022-11-24T18:45:55.699Z,32.00
2022-11-24T18:48:27.313Z,35.20
2022-11-24T18:50:59.442Z,29.90
2022-11-24T18:53:30.682Z,28.70
2022-11-24T19:01:10.437Z,29.60
2022-11-24T19:03:48.058Z,54.70
2022-11-24T19:06:21.787Z,62.60
2022-11-24T19:08:56.021Z,34.80
2022-11-24T19:11:29.143Z,31.20
2022-11-24T19:14:00.531Z,47.00
2022-11-24T19:16:31.681Z,51.40
2022-11-24T19:21:35.509Z,48.00
2022-11-24T19:24:10.030Z,44.40
2022-11-24T19:26:41.629Z,38.80
2022-11-24T19:29:13.022Z,41.50
2022-11-24T19:34:15.273Z,40.70
2022-11-24T19:36:46.400Z,40.70
2022-11-24T19:39:17.788Z,40.60
2022-11-24T19:41:48.600Z,35.90
2022-11-24T19:44:20.241Z,47.90
2022-11-24T19:46:51.210Z,35.60
2022-11-24T19:51:51.934Z,50.10
2022-11-24T19:54:22.901Z,45.50
2022-11-24T19:56:56.816Z,35.80
2022-11-24T19:59:27.861Z,40.60
2022-11-24T20:01:59.330Z,44.60
2022-11-24T20:04:32.948Z,37.70
2022-11-24T20:07:04.203Z,35.80
2022-11-24T20:09:35.107Z,37.40
2022-11-24T20:12:07.088Z,37.40
2022-11-24T20:14:38.037Z,35.50
2022-11-24T20:17:14.160Z,34.40
2022-11-24T20:19:45.215Z,34.90
2022-11-24T20:22:16.178Z,38.40
2022-11-24T20:24:47.184Z,33.80
2022-11-24T20:27:18.124Z,36.50
2022-11-24T20:29:49.200Z,42.00
2022-11-24T20:32:20.875Z,101.10
2022-11-24T20:34:51.703Z,71.20
2022-11-24T20:40:13.496Z,39.90
2022-11-24T20:42:44.427Z,41.80
2022-11-24T20:45:15.181Z,40.10
2022-11-24T20:47:46.070Z,37.20
2022-11-24T20:50:17.155Z,33.20
2022-11-24T20:52:47.945Z,44.60
2022-11-24T20:55:19.065Z,37.60
2022-11-24T20:57:49.795Z,40.00
2022-11-24T21:00:21.188Z,37.70
2022-11-24T21:02:52.057Z,40.30
2022-11-24T21:05:22.946Z,46.60
2022-11-24T21:07:53.763Z,30.70
2022-11-24T21:10:24.798Z,29.80
2022-11-24T21:12:55.859Z,24.40
2022-11-24T21:15:26.758Z,34.60
2022-11-24T21:17:57.778Z,35.00
2022-11-24T21:20:28.908Z,41.90
2022-11-24T21:22:59.956Z,36.20
2022-11-24T21:25:31.823Z,40.00
2022-11-24T21:28:03.230Z,44.10
2022-11-24T21:30:37.369Z,40.80
2022-11-24T21:33:09.235Z,61.90
2022-11-24T21:35:40.196Z,51.10
2022-11-24T21:38:11.100Z,38.30
2022-11-24T21:40:44.790Z,44.30
2022-11-24T21:43:19.801Z,50.50
2022-11-24T21:45:50.743Z,45.20
2022-11-24T21:50:51.191Z,31.50
2022-11-24T21:55:58.320Z,39.90
2022-11-24T21:58:32.907Z,40.10
2022-11-24T22:01:06.371Z,39.60
2022-11-24T22:03:37.495Z,47.10
2022-11-24T22:06:09.285Z,37.00
2022-11-24T22:08:40.444Z,39.40
2022-11-24T22:11:15.218Z,51.50
2022-11-24T22:13:46.677Z,29.10
2022-11-24T22:16:19.276Z,30.60
2022-11-24T22:18:51.225Z,36.50
2022-11-24T22:21:24.155Z,35.00
2022-11-24T22:23:55.541Z,34.90
2022-11-24T22:26:27.588Z,32.70
2022-11-24T22:28:59.779Z,35.40
2022-11-24T22:31:32.457Z,39.30
2022-11-24T22:34:03.840Z,39.70
2022-11-24T22:36:36.705Z,45.20
2022-11-24T22:39:12.315Z,36.90
2022-11-24T22:41:43.248Z,43.50
2022-11-24T22:44:14.181Z,45.70
2022-11-24T22:46:45.115Z,37.40
2022-11-24T22:49:16.155Z,43.20
2022-11-24T22:51:47.051Z,38.40
2022-11-24T22:54:17.928Z,40.70
2022-11-24T22:56:49.107Z,34.50
2022-11-24T22:59:20.409Z,31.30
2022-11-24T23:04:21.119Z,38.80
2022-11-24T23:06:52.248Z,43.20
2022-11-24T23:09:23.816Z,45.10
2022-11-24T23:11:54.775Z,40.50
2022-11-24T23:14:26.753Z,49.30
2022-11-24T23:17:01.027Z,44.30
2022-11-24T23:19:32.307Z,44.70
2022-11-24T23:24:37.899Z,38.70
2022-11-24T23:27:09.196Z,39.80
2022-11-24T23:32:11.467Z,35.20
2022-11-24T23:34:42.487Z,29.50
2022-11-24T23:37:13.732Z,34.70
2022-11-24T23:39:44.692Z,34.10
2022-11-24T23:42:15.632Z,35.80
2022-11-24T23:44:46.701Z,41.60
2022-11-24T23:47:17.589Z,37.00
2022-11-24T23:49:48.663Z,33.50
2022-11-24T23:57:37.952Z,36.80
